Terminal Aerodrome Forecast
Issued by NWS

Home | Current Version | Previous Version | Graphics & Text | Print | Product List | Glossary On
Versions: 1 2 3 4 5 6 7 8 9 10 11 12 13 14 15 16 17 18 19 20
000
FTUS43 KMPX 080802 AAA
TAFRNH
TAF AMD
KRNH 080802Z 0808/0906 26008KT P6SM BKN019
     FM081200 30008G14KT P6SM OVC015
     FM082100 26008G14KT 2SM -SN OVC015
      TEMPO 0821/0824 1SM -SN
     FM090100 32015G23KT P6SM -SN OVC025=

USA.gov is the U.S. government's official web portal to all federal, state and local government web resources and services.